sensor_id;sensor_type;location;lat;lon;timestamp;P1;durP1;ratioP1;P2;durP2;ratioP2
35552;SDS011;21656;46.054;13.614;2022-10-16T00:01:22;59.25;;;31.48;;
35552;SDS011;21656;46.054;13.614;2022-10-16T00:03:50;62.22;;;31.48;;
35552;SDS011;21656;46.054;13.614;2022-10-16T00:06:16;61.30;;;30.98;;
35552;SDS011;21656;46.054;13.614;2022-10-16T00:08:43;54.17;;;31.02;;
35552;SDS011;21656;46.054;13.614;2022-10-16T00:11:18;54.20;;;29.45;;
35552;SDS011;21656;46.054;13.614;2022-10-16T00:13:46;49.17;;;28.20;;
35552;SDS011;21656;46.054;13.614;2022-10-16T00:16:13;55.40;;;29.17;;
35552;SDS011;21656;46.054;13.614;2022-10-16T00:18:40;52.95;;;30.33;;
35552;SDS011;21656;46.054;13.614;2022-10-16T06:53:00;66.45;;;35.55;;
35552;SDS011;21656;46.054;13.614;2022-10-16T06:55:25;61.38;;;33.63;;
35552;SDS011;21656;46.054;13.614;2022-10-16T06:57:51;64.53;;;34.10;;
35552;SDS011;21656;46.054;13.614;2022-10-16T07:00:16;66.55;;;37.72;;
35552;SDS011;21656;46.054;13.614;2022-10-16T07:02:42;66.10;;;36.00;;
35552;SDS011;21656;46.054;13.614;2022-10-16T07:05:07;60.08;;;35.83;;
35552;SDS011;21656;46.054;13.614;2022-10-16T07:07:32;65.32;;;35.72;;
35552;SDS011;21656;46.054;13.614;2022-10-16T07:09:58;61.33;;;34.22;;
35552;SDS011;21656;46.054;13.614;2022-10-16T07:12:23;64.45;;;37.17;;
35552;SDS011;21656;46.054;13.614;2022-10-16T07:14:49;64.45;;;35.45;;
35552;SDS011;21656;46.054;13.614;2022-10-16T07:17:17;73.78;;;37.53;;
35552;SDS011;21656;46.054;13.614;2022-10-16T07:19:42;60.95;;;33.30;;
35552;SDS011;21656;46.054;13.614;2022-10-16T07:22:08;58.45;;;34.45;;
35552;SDS011;21656;46.054;13.614;2022-10-16T07:24:33;59.28;;;33.22;;
35552;SDS011;21656;46.054;13.614;2022-10-16T07:26:58;65.22;;;35.38;;
35552;SDS011;21656;46.054;13.614;2022-10-16T07:29:24;57.90;;;32.28;;
35552;SDS011;21656;46.054;13.614;2022-10-16T07:31:49;57.25;;;32.88;;
35552;SDS011;21656;46.054;13.614;2022-10-16T07:34:15;59.80;;;32.95;;
35552;SDS011;21656;46.054;13.614;2022-10-16T07:36:42;59.22;;;33.72;;
35552;SDS011;21656;46.054;13.614;2022-10-16T07:39:07;58.25;;;32.60;;
35552;SDS011;21656;46.054;13.614;2022-10-16T07:41:33;52.63;;;30.17;;
35552;SDS011;21656;46.054;13.614;2022-10-16T07:44:02;62.83;;;32.53;;
35552;SDS011;21656;46.054;13.614;2022-10-16T07:46:28;54.58;;;32.15;;
35552;SDS011;21656;46.054;13.614;2022-10-16T07:48:54;59.35;;;33.03;;
35552;SDS011;21656;46.054;13.614;2022-10-16T07:51:22;62.38;;;34.47;;
35552;SDS011;21656;46.054;13.614;2022-10-16T07:53:49;58.00;;;32.13;;
35552;SDS011;21656;46.054;13.614;2022-10-16T07:56:16;61.67;;;32.42;;
35552;SDS011;21656;46.054;13.614;2022-10-16T07:58:42;61.78;;;33.20;;
35552;SDS011;21656;46.054;13.614;2022-10-16T08:01:10;58.90;;;33.13;;
35552;SDS011;21656;46.054;13.614;2022-10-16T08:03:38;61.60;;;32.97;;
35552;SDS011;21656;46.054;13.614;2022-10-16T08:06:04;59.00;;;33.83;;
35552;SDS011;21656;46.054;13.614;2022-10-16T08:08:30;60.53;;;31.65;;
35552;SDS011;21656;46.054;13.614;2022-10-16T08:10:56;56.67;;;31.42;;
35552;SDS011;21656;46.054;13.614;2022-10-16T08:13:22;57.78;;;30.85;;
35552;SDS011;21656;46.054;13.614;2022-10-16T08:15:48;61.33;;;31.95;;
35552;SDS011;21656;46.054;13.614;2022-10-16T08:18:13;51.25;;;28.52;;
35552;SDS011;21656;46.054;13.614;2022-10-16T08:20:39;60.03;;;31.10;;
35552;SDS011;21656;46.054;13.614;2022-10-16T08:23:06;53.65;;;30.35;;
35552;SDS011;21656;46.054;13.614;2022-10-16T08:25:33;53.22;;;31.45;;
35552;SDS011;21656;46.054;13.614;2022-10-16T08:28:00;52.58;;;29.95;;
35552;SDS011;21656;46.054;13.614;2022-10-16T08:30:25;48.08;;;29.65;;
35552;SDS011;21656;46.054;13.614;2022-10-16T08:32:52;50.35;;;28.90;;
35552;SDS011;21656;46.054;13.614;2022-10-16T08:35:17;53.75;;;29.20;;
35552;SDS011;21656;46.054;13.614;2022-10-16T08:37:43;52.45;;;30.08;;
35552;SDS011;21656;46.054;13.614;2022-10-16T08:40:50;52.30;;;29.95;;
35552;SDS011;21656;46.054;13.614;2022-10-16T08:48:33;51.03;;;29.52;;
35552;SDS011;21656;46.054;13.614;2022-10-16T08:51:03;51.80;;;30.35;;
35552;SDS011;21656;46.054;13.614;2022-10-16T08:54:40;49.65;;;27.67;;
35552;SDS011;21656;46.054;13.614;2022-10-16T08:56:53;58.30;;;31.25;;
35552;SDS011;21656;46.054;13.614;2022-10-16T08:59:21;56.42;;;31.92;;
35552;SDS011;21656;46.054;13.614;2022-10-16T09:01:47;54.50;;;30.80;;
35552;SDS011;21656;46.054;13.614;2022-10-16T09:07:21;54.22;;;31.20;;
35552;SDS011;21656;46.054;13.614;2022-10-16T09:15:59;49.22;;;28.52;;
35552;SDS011;21656;46.054;13.614;2022-10-16T09:18:39;44.85;;;27.67;;
35552;SDS011;21656;46.054;13.614;2022-10-16T09:21:14;46.45;;;29.48;;
35552;SDS011;21656;46.054;13.614;2022-10-16T09:23:53;47.30;;;28.83;;
35552;SDS011;21656;46.054;13.614;2022-10-16T09:26:23;52.58;;;29.02;;
35552;SDS011;21656;46.054;13.614;2022-10-16T09:28:49;51.83;;;28.20;;
35552;SDS011;21656;46.054;13.614;2022-10-16T09:31:19;48.75;;;28.02;;
35552;SDS011;21656;46.054;13.614;2022-10-16T09:33:52;55.10;;;29.55;;
35552;SDS011;21656;46.054;13.614;2022-10-16T09:36:25;49.63;;;28.70;;
35552;SDS011;21656;46.054;13.614;2022-10-16T09:39:03;48.80;;;29.15;;
35552;SDS011;21656;46.054;13.614;2022-10-16T09:41:33;51.05;;;27.98;;
35552;SDS011;21656;46.054;13.614;2022-10-16T09:44:02;46.03;;;28.13;;
35552;SDS011;21656;46.054;13.614;2022-10-16T09:46:34;48.78;;;30.05;;
35552;SDS011;21656;46.054;13.614;2022-10-16T09:49:02;51.00;;;28.95;;
35552;SDS011;21656;46.054;13.614;2022-10-16T09:51:35;49.47;;;28.85;;
35552;SDS011;21656;46.054;13.614;2022-10-16T09:54:12;53.78;;;27.90;;
35552;SDS011;21656;46.054;13.614;2022-10-16T09:56:40;47.28;;;27.90;;
35552;SDS011;21656;46.054;13.614;2022-10-16T09:59:13;46.83;;;29.23;;
35552;SDS011;21656;46.054;13.614;2022-10-16T10:01:50;47.25;;;28.98;;
35552;SDS011;21656;46.054;13.614;2022-10-16T10:04:18;45.03;;;27.88;;
35552;SDS011;21656;46.054;13.614;2022-10-16T10:06:46;48.42;;;27.80;;
35552;SDS011;21656;46.054;13.614;2022-10-16T10:12:00;48.28;;;28.25;;
35552;SDS011;21656;46.054;13.614;2022-10-16T10:19:38;48.40;;;28.10;;
35552;SDS011;21656;46.054;13.614;2022-10-16T10:24:57;49.65;;;29.50;;
35552;SDS011;21656;46.054;13.614;2022-10-16T10:30:34;51.28;;;30.58;;
35552;SDS011;21656;46.054;13.614;2022-10-16T10:36:22;52.97;;;29.88;;
35552;SDS011;21656;46.054;13.614;2022-10-16T10:39:17;55.13;;;30.80;;
35552;SDS011;21656;46.054;13.614;2022-10-16T10:42:02;42.20;;;26.63;;
35552;SDS011;21656;46.054;13.614;2022-10-16T10:47:47;50.03;;;30.85;;
35552;SDS011;21656;46.054;13.614;2022-10-16T10:50:28;51.58;;;30.05;;
35552;SDS011;21656;46.054;13.614;2022-10-16T11:02:03;50.85;;;32.15;;
35552;SDS011;21656;46.054;13.614;2022-10-16T11:04:34;53.05;;;30.67;;
35552;SDS011;21656;46.054;13.614;2022-10-16T11:07:21;53.30;;;30.27;;
35552;SDS011;21656;46.054;13.614;2022-10-16T11:09:52;52.65;;;32.08;;
35552;SDS011;21656;46.054;13.614;2022-10-16T11:12:33;50.78;;;28.25;;
35552;SDS011;21656;46.054;13.614;2022-10-16T11:17:50;49.83;;;30.15;;
35552;SDS011;21656;46.054;13.614;2022-10-16T11:23:31;49.85;;;30.30;;
35552;SDS011;21656;46.054;13.614;2022-10-16T11:26:20;53.97;;;31.88;;
35552;SDS011;21656;46.054;13.614;2022-10-16T11:28:54;58.65;;;34.78;;
35552;SDS011;21656;46.054;13.614;2022-10-16T11:31:29;68.55;;;38.05;;
35552;SDS011;21656;46.054;13.614;2022-10-16T11:47:11;62.22;;;33.83;;
35552;SDS011;21656;46.054;13.614;2022-10-16T11:49:47;68.43;;;36.80;;
35552;SDS011;21656;46.054;13.614;2022-10-16T11:57:35;67.10;;;36.15;;
35552;SDS011;21656;46.054;13.614;2022-10-16T12:00:29;70.60;;;38.03;;
35552;SDS011;21656;46.054;13.614;2022-10-16T12:02:58;66.95;;;37.88;;
35552;SDS011;21656;46.054;13.614;2022-10-16T12:08:12;74.75;;;39.95;;
35552;SDS011;21656;46.054;13.614;2022-10-16T12:10:42;70.18;;;39.03;;
35552;SDS011;21656;46.054;13.614;2022-10-16T12:16:04;67.20;;;35.20;;
35552;SDS011;21656;46.054;13.614;2022-10-16T12:18:43;68.15;;;38.00;;
35552;SDS011;21656;46.054;13.614;2022-10-16T12:21:10;77.88;;;39.45;;
35552;SDS011;21656;46.054;13.614;2022-10-16T12:26:23;71.13;;;36.90;;
35552;SDS011;21656;46.054;13.614;2022-10-16T12:28:53;67.85;;;36.92;;
35552;SDS011;21656;46.054;13.614;2022-10-16T12:31:20;68.82;;;35.45;;
35552;SDS011;21656;46.054;13.614;2022-10-16T12:36:48;67.22;;;35.15;;
35552;SDS011;21656;46.054;13.614;2022-10-16T12:39:21;68.00;;;37.13;;
35552;SDS011;21656;46.054;13.614;2022-10-16T12:41:48;70.65;;;37.08;;
35552;SDS011;21656;46.054;13.614;2022-10-16T12:44:26;69.28;;;36.38;;
35552;SDS011;21656;46.054;13.614;2022-10-16T12:46:58;70.40;;;37.65;;
35552;SDS011;21656;46.054;13.614;2022-10-16T12:51:58;67.35;;;37.28;;
35552;SDS011;21656;46.054;13.614;2022-10-16T12:54:28;60.25;;;33.65;;
35552;SDS011;21656;46.054;13.614;2022-10-16T13:02:38;67.20;;;36.53;;
35552;SDS011;21656;46.054;13.614;2022-10-16T13:13:40;56.72;;;32.13;;
35552;SDS011;21656;46.054;13.614;2022-10-16T13:18:50;59.17;;;33.30;;
35552;SDS011;21656;46.054;13.614;2022-10-16T13:30:20;58.67;;;32.10;;
35552;SDS011;21656;46.054;13.614;2022-10-16T13:32:58;54.40;;;30.80;;
35552;SDS011;21656;46.054;13.614;2022-10-16T13:35:30;55.97;;;32.78;;
35552;SDS011;21656;46.054;13.614;2022-10-16T13:38:14;58.83;;;31.17;;
35552;SDS011;21656;46.054;13.614;2022-10-16T13:43:28;62.75;;;32.10;;
35552;SDS011;21656;46.054;13.614;2022-10-16T13:46:01;60.63;;;33.17;;
35552;SDS011;21656;46.054;13.614;2022-10-16T13:48:30;62.47;;;31.48;;
35552;SDS011;21656;46.054;13.614;2022-10-16T13:50:58;59.92;;;32.35;;
35552;SDS011;21656;46.054;13.614;2022-10-16T13:53:38;55.03;;;30.52;;
35552;SDS011;21656;46.054;13.614;2022-10-16T13:56:07;60.40;;;31.85;;
35552;SDS011;21656;46.054;13.614;2022-10-16T13:58:38;62.50;;;33.55;;
35552;SDS011;21656;46.054;13.614;2022-10-16T14:01:05;58.65;;;32.13;;
35552;SDS011;21656;46.054;13.614;2022-10-16T14:03:51;58.70;;;33.03;;
35552;SDS011;21656;46.054;13.614;2022-10-16T14:06:19;62.75;;;33.33;;
35552;SDS011;21656;46.054;13.614;2022-10-16T14:08:50;60.90;;;33.63;;
35552;SDS011;21656;46.054;13.614;2022-10-16T14:14:01;59.03;;;32.03;;
35552;SDS011;21656;46.054;13.614;2022-10-16T14:16:29;54.65;;;31.73;;
35552;SDS011;21656;46.054;13.614;2022-10-16T14:19:04;56.25;;;32.00;;
35552;SDS011;21656;46.054;13.614;2022-10-16T14:21:32;59.58;;;32.60;;
35552;SDS011;21656;46.054;13.614;2022-10-16T14:23:59;52.15;;;29.60;;
35552;SDS011;21656;46.054;13.614;2022-10-16T14:26:40;56.60;;;33.05;;
35552;SDS011;21656;46.054;13.614;2022-10-16T14:29:11;55.72;;;31.60;;
35552;SDS011;21656;46.054;13.614;2022-10-16T14:31:39;58.08;;;31.17;;
35552;SDS011;21656;46.054;13.614;2022-10-16T14:34:27;63.55;;;33.58;;
35552;SDS011;21656;46.054;13.614;2022-10-16T14:36:55;67.22;;;30.05;;
35552;SDS011;21656;46.054;13.614;2022-10-16T14:39:24;59.20;;;31.50;;
35552;SDS011;21656;46.054;13.614;2022-10-16T14:41:51;49.90;;;29.17;;
35552;SDS011;21656;46.054;13.614;2022-10-16T14:44:25;49.20;;;28.38;;
35552;SDS011;21656;46.054;13.614;2022-10-16T14:46:54;51.40;;;29.42;;
35552;SDS011;21656;46.054;13.614;2022-10-16T14:49:20;66.13;;;31.88;;
35552;SDS011;21656;46.054;13.614;2022-10-16T14:51:48;47.88;;;27.42;;
35552;SDS011;21656;46.054;13.614;2022-10-16T14:54:13;48.97;;;26.40;;
35552;SDS011;21656;46.054;13.614;2022-10-16T14:56:51;44.95;;;26.67;;
35552;SDS011;21656;46.054;13.614;2022-10-16T14:59:34;54.10;;;27.30;;
35552;SDS011;21656;46.054;13.614;2022-10-16T15:02:48;47.67;;;25.95;;
35552;SDS011;21656;46.054;13.614;2022-10-16T15:04:52;47.28;;;26.65;;
35552;SDS011;21656;46.054;13.614;2022-10-16T15:07:17;51.58;;;27.27;;
35552;SDS011;21656;46.054;13.614;2022-10-16T15:09:43;42.72;;;25.58;;
35552;SDS011;21656;46.054;13.614;2022-10-16T15:12:08;51.05;;;25.23;;
35552;SDS011;21656;46.054;13.614;2022-10-16T15:14:34;42.95;;;24.77;;
35552;SDS011;21656;46.054;13.614;2022-10-16T15:16:59;45.28;;;25.15;;
35552;SDS011;21656;46.054;13.614;2022-10-16T15:19:25;38.00;;;24.25;;
35552;SDS011;21656;46.054;13.614;2022-10-16T15:21:50;41.42;;;24.38;;
35552;SDS011;21656;46.054;13.614;2022-10-16T15:24:17;42.13;;;25.85;;
35552;SDS011;21656;46.054;13.614;2022-10-16T15:26:43;44.78;;;25.73;;
35552;SDS011;21656;46.054;13.614;2022-10-16T15:29:11;42.08;;;25.77;;
35552;SDS011;21656;46.054;13.614;2022-10-16T15:31:36;48.88;;;27.15;;
35552;SDS011;21656;46.054;13.614;2022-10-16T15:34:02;46.45;;;28.90;;
35552;SDS011;21656;46.054;13.614;2022-10-16T15:36:30;47.13;;;27.67;;
35552;SDS011;21656;46.054;13.614;2022-10-16T15:38:59;42.92;;;26.33;;
35552;SDS011;21656;46.054;13.614;2022-10-16T15:41:25;43.83;;;26.02;;
35552;SDS011;21656;46.054;13.614;2022-10-16T15:43:51;43.33;;;25.23;;
35552;SDS011;21656;46.054;13.614;2022-10-16T15:46:20;43.13;;;25.73;;
35552;SDS011;21656;46.054;13.614;2022-10-16T15:48:47;50.00;;;26.05;;
35552;SDS011;21656;46.054;13.614;2022-10-16T15:51:14;47.50;;;26.83;;
35552;SDS011;21656;46.054;13.614;2022-10-16T15:53:40;39.90;;;24.40;;
35552;SDS011;21656;46.054;13.614;2022-10-16T15:56:07;45.33;;;26.30;;
35552;SDS011;21656;46.054;13.614;2022-10-16T15:58:34;41.88;;;25.58;;
35552;SDS011;21656;46.054;13.614;2022-10-16T16:01:00;45.40;;;27.25;;
35552;SDS011;21656;46.054;13.614;2022-10-16T16:03:26;43.58;;;27.83;;
35552;SDS011;21656;46.054;13.614;2022-10-16T16:05:53;47.38;;;26.05;;
35552;SDS011;21656;46.054;13.614;2022-10-16T16:08:18;45.97;;;25.15;;
35552;SDS011;21656;46.054;13.614;2022-10-16T16:10:44;46.72;;;27.27;;
35552;SDS011;21656;46.054;13.614;2022-10-16T16:13:09;39.92;;;25.63;;
35552;SDS011;21656;46.054;13.614;2022-10-16T16:15:37;49.78;;;25.38;;
35552;SDS011;21656;46.054;13.614;2022-10-16T16:18:03;39.60;;;25.55;;
35552;SDS011;21656;46.054;13.614;2022-10-16T16:20:31;45.22;;;26.67;;
35552;SDS011;21656;46.054;13.614;2022-10-16T16:22:57;44.00;;;26.67;;
35552;SDS011;21656;46.054;13.614;2022-10-16T16:25:22;47.20;;;27.77;;
35552;SDS011;21656;46.054;13.614;2022-10-16T16:27:48;47.50;;;26.88;;
35552;SDS011;21656;46.054;13.614;2022-10-16T16:30:14;39.88;;;24.63;;
35552;SDS011;21656;46.054;13.614;2022-10-16T16:32:42;41.53;;;25.33;;
35552;SDS011;21656;46.054;13.614;2022-10-16T16:35:09;49.63;;;27.42;;
35552;SDS011;21656;46.054;13.614;2022-10-16T16:37:36;40.40;;;25.77;;
35552;SDS011;21656;46.054;13.614;2022-10-16T16:40:02;48.67;;;27.52;;
35552;SDS011;21656;46.054;13.614;2022-10-16T16:42:28;53.42;;;28.33;;
35552;SDS011;21656;46.054;13.614;2022-10-16T16:44:53;49.97;;;27.17;;
35552;SDS011;21656;46.054;13.614;2022-10-16T16:47:19;42.28;;;26.40;;
35552;SDS011;21656;46.054;13.614;2022-10-16T16:49:44;55.53;;;26.10;;
35552;SDS011;21656;46.054;13.614;2022-10-16T16:52:11;49.35;;;26.13;;
35552;SDS011;21656;46.054;13.614;2022-10-16T16:54:38;41.00;;;25.27;;
35552;SDS011;21656;46.054;13.614;2022-10-16T16:57:03;55.28;;;32.22;;
35552;SDS011;21656;46.054;13.614;2022-10-16T16:59:29;75.45;;;41.00;;
35552;SDS011;21656;46.054;13.614;2022-10-16T17:01:57;56.75;;;35.28;;
35552;SDS011;21656;46.054;13.614;2022-10-16T17:04:24;60.05;;;35.45;;
35552;SDS011;21656;46.054;13.614;2022-10-16T17:06:50;57.50;;;36.45;;
35552;SDS011;21656;46.054;13.614;2022-10-16T17:09:18;55.85;;;34.60;;
35552;SDS011;21656;46.054;13.614;2022-10-16T17:11:44;59.10;;;33.90;;
35552;SDS011;21656;46.054;13.614;2022-10-16T17:14:10;56.10;;;30.67;;
35552;SDS011;21656;46.054;13.614;2022-10-16T17:16:37;47.20;;;26.67;;
35552;SDS011;21656;46.054;13.614;2022-10-16T17:19:05;50.72;;;27.52;;
35552;SDS011;21656;46.054;13.614;2022-10-16T17:21:32;48.28;;;25.58;;
35552;SDS011;21656;46.054;13.614;2022-10-16T17:23:59;52.00;;;26.33;;
35552;SDS011;21656;46.054;13.614;2022-10-16T17:26:25;47.55;;;26.95;;
35552;SDS011;21656;46.054;13.614;2022-10-16T17:28:54;43.65;;;27.13;;
35552;SDS011;21656;46.054;13.614;2022-10-16T17:31:23;49.33;;;27.50;;
35552;SDS011;21656;46.054;13.614;2022-10-16T17:33:50;44.50;;;26.55;;
35552;SDS011;21656;46.054;13.614;2022-10-16T17:36:17;50.45;;;26.45;;
35552;SDS011;21656;46.054;13.614;2022-10-16T17:38:44;48.00;;;26.70;;
35552;SDS011;21656;46.054;13.614;2022-10-16T17:41:11;49.90;;;26.92;;
35552;SDS011;21656;46.054;13.614;2022-10-16T17:43:38;56.17;;;28.52;;
35552;SDS011;21656;46.054;13.614;2022-10-16T17:46:05;54.63;;;28.85;;
35552;SDS011;21656;46.054;13.614;2022-10-16T17:48:31;60.45;;;29.23;;
35552;SDS011;21656;46.054;13.614;2022-10-16T17:51:02;49.30;;;28.25;;
35552;SDS011;21656;46.054;13.614;2022-10-16T17:53:28;54.33;;;29.17;;
35552;SDS011;21656;46.054;13.614;2022-10-16T17:55:54;53.10;;;27.90;;
35552;SDS011;21656;46.054;13.614;2022-10-16T17:58:23;56.25;;;29.77;;
35552;SDS011;21656;46.054;13.614;2022-10-16T18:00:49;53.95;;;29.48;;
35552;SDS011;21656;46.054;13.614;2022-10-16T18:03:16;56.03;;;29.30;;
35552;SDS011;21656;46.054;13.614;2022-10-16T18:05:41;53.33;;;27.60;;
35552;SDS011;21656;46.054;13.614;2022-10-16T18:08:06;47.33;;;27.00;;
35552;SDS011;21656;46.054;13.614;2022-10-16T18:10:32;53.90;;;28.23;;
35552;SDS011;21656;46.054;13.614;2022-10-16T18:12:57;55.90;;;28.42;;
35552;SDS011;21656;46.054;13.614;2022-10-16T18:15:23;61.05;;;30.25;;
35552;SDS011;21656;46.054;13.614;2022-10-16T18:17:48;55.50;;;27.45;;
35552;SDS011;21656;46.054;13.614;2022-10-16T18:20:14;60.97;;;30.35;;
35552;SDS011;21656;46.054;13.614;2022-10-16T18:22:40;54.15;;;29.38;;
35552;SDS011;21656;46.054;13.614;2022-10-16T18:25:06;55.03;;;28.33;;
35552;SDS011;21656;46.054;13.614;2022-10-16T18:27:32;53.65;;;29.77;;
35552;SDS011;21656;46.054;13.614;2022-10-16T18:29:58;60.22;;;29.65;;
35552;SDS011;21656;46.054;13.614;2022-10-16T18:32:24;59.95;;;28.00;;
35552;SDS011;21656;46.054;13.614;2022-10-16T18:34:51;53.53;;;28.50;;
35552;SDS011;21656;46.054;13.614;2022-10-16T18:37:18;49.17;;;27.58;;
35552;SDS011;21656;46.054;13.614;2022-10-16T18:39:47;57.92;;;28.63;;
35552;SDS011;21656;46.054;13.614;2022-10-16T18:42:13;54.25;;;27.88;;
35552;SDS011;21656;46.054;13.614;2022-10-16T18:44:42;57.13;;;28.60;;
35552;SDS011;21656;46.054;13.614;2022-10-16T18:47:07;50.75;;;28.55;;
35552;SDS011;21656;46.054;13.614;2022-10-16T18:49:33;49.72;;;27.08;;
35552;SDS011;21656;46.054;13.614;2022-10-16T18:51:58;51.75;;;27.42;;
35552;SDS011;21656;46.054;13.614;2022-10-16T18:54:27;47.78;;;26.83;;
35552;SDS011;21656;46.054;13.614;2022-10-16T18:56:53;49.33;;;28.05;;
35552;SDS011;21656;46.054;13.614;2022-10-16T18:59:19;52.17;;;27.60;;
35552;SDS011;21656;46.054;13.614;2022-10-16T19:01:44;59.75;;;28.35;;
35552;SDS011;21656;46.054;13.614;2022-10-16T19:04:12;56.25;;;29.85;;
35552;SDS011;21656;46.054;13.614;2022-10-16T19:06:44;47.70;;;28.33;;
35552;SDS011;21656;46.054;13.614;2022-10-16T19:09:11;56.10;;;30.77;;
35552;SDS011;21656;46.054;13.614;2022-10-16T19:11:39;56.15;;;29.15;;
35552;SDS011;21656;46.054;13.614;2022-10-16T19:14:05;55.28;;;28.92;;
35552;SDS011;21656;46.054;13.614;2022-10-16T19:16:31;60.53;;;29.48;;
35552;SDS011;21656;46.054;13.614;2022-10-16T19:18:59;55.33;;;28.38;;
35552;SDS011;21656;46.054;13.614;2022-10-16T19:21:27;58.97;;;29.42;;
35552;SDS011;21656;46.054;13.614;2022-10-16T19:23:55;49.22;;;26.73;;
35552;SDS011;21656;46.054;13.614;2022-10-16T19:26:22;51.13;;;25.25;;
35552;SDS011;21656;46.054;13.614;2022-10-16T19:28:49;49.97;;;27.10;;
35552;SDS011;21656;46.054;13.614;2022-10-16T19:31:18;50.67;;;27.20;;
35552;SDS011;21656;46.054;13.614;2022-10-16T19:33:44;51.13;;;28.15;;
35552;SDS011;21656;46.054;13.614;2022-10-16T19:38:47;59.38;;;32.03;;
35552;SDS011;21656;46.054;13.614;2022-10-16T19:41:17;67.30;;;32.53;;
35552;SDS011;21656;46.054;13.614;2022-10-16T19:43:44;57.33;;;33.05;;
35552;SDS011;21656;46.054;13.614;2022-10-16T19:46:21;64.40;;;36.95;;
35552;SDS011;21656;46.054;13.614;2022-10-16T19:48:48;72.60;;;35.70;;
35552;SDS011;21656;46.054;13.614;2022-10-16T19:51:18;63.42;;;34.55;;
35552;SDS011;21656;46.054;13.614;2022-10-16T19:53:45;61.50;;;33.50;;
35552;SDS011;21656;46.054;13.614;2022-10-16T19:56:19;59.40;;;30.20;;
35552;SDS011;21656;46.054;13.614;2022-10-16T19:58:47;52.45;;;28.63;;
35552;SDS011;21656;46.054;13.614;2022-10-16T20:01:13;58.13;;;30.00;;
35552;SDS011;21656;46.054;13.614;2022-10-16T20:03:39;53.40;;;28.90;;
35552;SDS011;21656;46.054;13.614;2022-10-16T20:06:07;61.45;;;31.50;;
35552;SDS011;21656;46.054;13.614;2022-10-16T20:08:33;56.95;;;28.95;;
35552;SDS011;21656;46.054;13.614;2022-10-16T20:11:00;62.63;;;31.17;;
35552;SDS011;21656;46.054;13.614;2022-10-16T20:13:26;53.80;;;29.20;;
35552;SDS011;21656;46.054;13.614;2022-10-16T20:15:53;60.13;;;30.30;;
35552;SDS011;21656;46.054;13.614;2022-10-16T20:18:18;54.33;;;29.05;;
35552;SDS011;21656;46.054;13.614;2022-10-16T20:20:44;55.47;;;30.42;;
35552;SDS011;21656;46.054;13.614;2022-10-16T20:23:13;56.03;;;28.77;;
35552;SDS011;21656;46.054;13.614;2022-10-16T20:25:39;53.20;;;28.92;;
35552;SDS011;21656;46.054;13.614;2022-10-16T20:28:07;58.72;;;29.60;;
35552;SDS011;21656;46.054;13.614;2022-10-16T20:30:39;55.55;;;29.35;;
35552;SDS011;21656;46.054;13.614;2022-10-16T20:33:06;59.85;;;29.63;;
35552;SDS011;21656;46.054;13.614;2022-10-16T20:35:43;57.20;;;28.77;;
35552;SDS011;21656;46.054;13.614;2022-10-16T20:38:12;56.78;;;29.80;;
35552;SDS011;21656;46.054;13.614;2022-10-16T20:40:39;53.35;;;29.08;;
35552;SDS011;21656;46.054;13.614;2022-10-16T20:43:15;50.47;;;28.92;;
35552;SDS011;21656;46.054;13.614;2022-10-16T20:45:42;60.65;;;29.75;;
35552;SDS011;21656;46.054;13.614;2022-10-16T20:48:08;55.38;;;28.92;;
35552;SDS011;21656;46.054;13.614;2022-10-16T20:50:38;71.60;;;31.20;;
35552;SDS011;21656;46.054;13.614;2022-10-16T20:53:04;64.18;;;28.98;;
35552;SDS011;21656;46.054;13.614;2022-10-16T20:55:30;63.47;;;31.40;;
35552;SDS011;21656;46.054;13.614;2022-10-16T20:57:58;61.25;;;32.08;;
35552;SDS011;21656;46.054;13.614;2022-10-16T21:00:24;60.22;;;31.13;;
35552;SDS011;21656;46.054;13.614;2022-10-16T21:02:49;62.70;;;30.65;;
35552;SDS011;21656;46.054;13.614;2022-10-16T21:05:15;66.07;;;31.88;;
35552;SDS011;21656;46.054;13.614;2022-10-16T21:07:40;58.88;;;29.08;;
35552;SDS011;21656;46.054;13.614;2022-10-16T21:10:06;54.88;;;29.00;;
35552;SDS011;21656;46.054;13.614;2022-10-16T21:12:33;58.05;;;30.23;;
35552;SDS011;21656;46.054;13.614;2022-10-16T21:14:58;63.33;;;29.40;;
35552;SDS011;21656;46.054;13.614;2022-10-16T21:17:24;56.58;;;31.20;;
35552;SDS011;21656;46.054;13.614;2022-10-16T21:19:49;60.67;;;31.05;;
35552;SDS011;21656;46.054;13.614;2022-10-16T21:22:14;56.53;;;30.95;;
35552;SDS011;21656;46.054;13.614;2022-10-16T21:24:40;72.15;;;35.38;;
35552;SDS011;21656;46.054;13.614;2022-10-16T21:27:06;63.05;;;32.72;;
35552;SDS011;21656;46.054;13.614;2022-10-16T21:29:31;66.35;;;32.53;;
35552;SDS011;21656;46.054;13.614;2022-10-16T21:31:57;57.60;;;31.23;;
35552;SDS011;21656;46.054;13.614;2022-10-16T21:34:23;59.15;;;31.50;;
35552;SDS011;21656;46.054;13.614;2022-10-16T21:36:48;64.15;;;31.73;;
35552;SDS011;21656;46.054;13.614;2022-10-16T21:39:15;61.85;;;31.00;;
35552;SDS011;21656;46.054;13.614;2022-10-16T21:41:43;59.47;;;29.90;;
35552;SDS011;21656;46.054;13.614;2022-10-16T21:44:11;58.75;;;30.80;;
35552;SDS011;21656;46.054;13.614;2022-10-16T21:46:38;56.58;;;30.10;;
35552;SDS011;21656;46.054;13.614;2022-10-16T21:49:05;58.95;;;29.35;;
35552;SDS011;21656;46.054;13.614;2022-10-16T21:51:38;56.10;;;29.15;;
35552;SDS011;21656;46.054;13.614;2022-10-16T21:54:06;56.53;;;28.63;;
35552;SDS011;21656;46.054;13.614;2022-10-16T21:56:34;61.75;;;29.30;;
35552;SDS011;21656;46.054;13.614;2022-10-16T21:58:59;54.72;;;28.25;;
35552;SDS011;21656;46.054;13.614;2022-10-16T22:01:25;58.42;;;31.52;;
35552;SDS011;21656;46.054;13.614;2022-10-16T22:03:52;63.38;;;31.13;;
35552;SDS011;21656;46.054;13.614;2022-10-16T22:06:19;61.92;;;30.50;;
35552;SDS011;21656;46.054;13.614;2022-10-16T22:08:46;57.90;;;30.83;;
35552;SDS011;21656;46.054;13.614;2022-10-16T22:11:13;66.95;;;31.30;;
35552;SDS011;21656;46.054;13.614;2022-10-16T22:13:40;80.18;;;32.58;;
35552;SDS011;21656;46.054;13.614;2022-10-16T22:16:07;67.07;;;31.65;;
35552;SDS011;21656;46.054;13.614;2022-10-16T22:18:33;65.20;;;31.08;;
35552;SDS011;21656;46.054;13.614;2022-10-16T22:20:58;58.92;;;30.70;;
35552;SDS011;21656;46.054;13.614;2022-10-16T22:23:24;59.92;;;30.60;;
35552;SDS011;21656;46.054;13.614;2022-10-16T22:25:50;63.15;;;29.98;;
35552;SDS011;21656;46.054;13.614;2022-10-16T22:28:16;58.42;;;29.92;;
35552;SDS011;21656;46.054;13.614;2022-10-16T22:30:42;60.25;;;29.13;;
35552;SDS011;21656;46.054;13.614;2022-10-16T22:33:09;55.88;;;27.73;;
35552;SDS011;21656;46.054;13.614;2022-10-16T22:35:35;56.38;;;28.65;;
35552;SDS011;21656;46.054;13.614;2022-10-16T22:38:02;61.65;;;29.15;;
35552;SDS011;21656;46.054;13.614;2022-10-16T22:40:28;58.67;;;29.88;;
35552;SDS011;21656;46.054;13.614;2022-10-16T22:42:53;54.10;;;29.75;;
35552;SDS011;21656;46.054;13.614;2022-10-16T22:45:21;69.40;;;33.22;;